createdAt,value
2018-12-01T00:01:15.153Z,19.20
2018-12-01T00:06:18.355Z,16.33
2018-12-01T00:11:21.593Z,18.43
2018-12-01T00:16:24.911Z,18.23
2018-12-01T00:21:28.142Z,18.60
2018-12-01T00:26:31.336Z,16.80
2018-12-01T00:31:34.569Z,20.67
2018-12-01T00:36:37.733Z,18.43
2018-12-01T00:41:40.901Z,18.53
2018-12-01T00:46:44.067Z,16.63
2018-12-01T00:51:47.312Z,18.23
2018-12-01T00:56:50.542Z,19.00
2018-12-01T01:01:53.694Z,19.40
2018-12-01T01:06:56.921Z,17.90
2018-12-01T01:12:00.105Z,21.17
2018-12-01T01:17:03.304Z,16.10
2018-12-01T01:22:06.877Z,19.17
2018-12-01T01:27:10.066Z,18.17
2018-12-01T01:32:13.276Z,20.30
2018-12-01T01:37:16.465Z,18.37
2018-12-01T01:42:19.669Z,17.63
2018-12-01T01:47:22.882Z,17.43
2018-12-01T01:52:26.071Z,18.63
2018-12-01T01:57:29.274Z,17.17
2018-12-01T02:02:32.548Z,20.10
2018-12-01T02:07:35.763Z,19.63
2018-12-01T02:12:38.957Z,18.73
2018-12-01T02:17:42.201Z,19.80
2018-12-01T02:22:45.513Z,17.13
2018-12-01T02:27:48.872Z,20.13
2018-12-01T02:32:52.043Z,19.13
2018-12-01T02:37:55.237Z,19.73
2018-12-01T02:42:58.425Z,18.13
2018-12-01T02:48:01.590Z,20.47
2018-12-01T02:53:04.865Z,20.40
2018-12-01T02:58:08.027Z,26.23
2018-12-01T03:03:11.224Z,20.83
2018-12-01T03:08:14.426Z,20.83
2018-12-01T03:13:17.584Z,19.33
2018-12-01T03:18:20.765Z,20.17
2018-12-01T03:23:23.938Z,16.43
2018-12-01T03:28:27.081Z,20.90
2018-12-01T03:33:30.250Z,19.77
2018-12-01T03:38:33.465Z,22.93
2018-12-01T03:43:36.608Z,23.97
2018-12-01T03:48:39.752Z,21.23
2018-12-01T03:53:42.964Z,21.70
2018-12-01T03:58:46.133Z,21.07
2018-12-01T04:03:49.333Z,20.97
2018-12-01T04:08:52.482Z,20.77
2018-12-01T04:13:55.616Z,17.40
2018-12-01T04:18:58.794Z,20.47
2018-12-01T04:24:01.960Z,18.00
2018-12-01T04:29:05.239Z,18.83
2018-12-01T04:34:08.428Z,20.20
2018-12-01T04:39:12.173Z,17.00
2018-12-01T04:44:14.844Z,19.47
2018-12-01T04:49:18.085Z,18.50
2018-12-01T04:54:21.232Z,19.33
2018-12-01T04:59:24.387Z,20.00
2018-12-01T05:04:27.601Z,19.60
2018-12-01T05:09:30.765Z,19.93
2018-12-01T05:14:33.926Z,18.50
2018-12-01T05:19:37.086Z,19.47
2018-12-01T05:24:40.244Z,15.23
2018-12-01T05:29:43.429Z,15.63
2018-12-01T05:34:46.570Z,20.20
2018-12-01T05:39:49.753Z,21.47
2018-12-01T05:44:52.996Z,19.17
2018-12-01T05:49:56.181Z,18.20
2018-12-01T05:54:59.323Z,17.20
2018-12-01T06:00:02.757Z,17.03
2018-12-01T06:05:06.304Z,20.10
2018-12-01T06:10:14.965Z,19.33
2018-12-01T06:15:19.202Z,20.03
2018-12-01T06:20:23.285Z,18.63
2018-12-01T06:25:26.454Z,20.63
2018-12-01T06:30:29.605Z,15.73
2018-12-01T06:35:32.789Z,19.03
2018-12-01T06:40:35.929Z,17.57
2018-12-01T06:45:39.092Z,16.37
2018-12-01T06:50:42.349Z,16.87
2018-12-01T06:55:46.404Z,17.77
2018-12-01T07:00:49.568Z,19.77
2018-12-01T07:05:52.761Z,17.70
2018-12-01T07:10:55.993Z,17.27
2018-12-01T07:15:59.178Z,17.20
2018-12-01T07:21:02.419Z,19.07
2018-12-01T07:26:05.706Z,21.87
2018-12-01T07:31:08.890Z,29.57
2018-12-01T07:36:12.057Z,25.43
2018-12-01T07:41:15.342Z,27.60
2018-12-01T07:46:18.541Z,17.80
2018-12-01T07:51:21.757Z,22.53
2018-12-01T07:56:24.954Z,21.43
2018-12-01T08:01:28.142Z,18.57
2018-12-01T08:06:31.345Z,17.30
2018-12-01T08:11:34.547Z,18.37
2018-12-01T08:16:37.792Z,19.27
2018-12-01T08:21:41.049Z,19.50
2018-12-01T08:26:44.278Z,16.93
2018-12-01T08:31:47.522Z,17.03
2018-12-01T08:36:50.836Z,16.40
2018-12-01T08:41:54.103Z,15.67
2018-12-01T08:46:57.318Z,16.67
2018-12-01T08:52:00.493Z,13.03
2018-12-01T08:57:03.703Z,13.80
2018-12-01T09:02:06.873Z,15.53
2018-12-01T09:07:10.095Z,15.80
2018-12-01T09:12:14.236Z,14.00
2018-12-01T09:17:16.885Z,10.60
2018-12-01T09:22:20.445Z,11.80
2018-12-01T09:27:23.715Z,11.27
2018-12-01T09:32:26.934Z,11.23
2018-12-01T09:37:30.162Z,10.23
2018-12-01T09:42:33.408Z,12.03
2018-12-01T09:47:36.660Z,11.97
2018-12-01T09:52:39.901Z,11.53
2018-12-01T09:57:44.265Z,13.80
2018-12-01T10:02:47.831Z,13.80
2018-12-01T10:07:51.070Z,10.73
2018-12-01T10:12:55.789Z,10.30
2018-12-01T10:17:59.074Z,13.30
2018-12-01T10:23:11.453Z,13.63
2018-12-01T10:28:14.650Z,12.43
2018-12-01T10:33:17.968Z,11.17
2018-12-01T10:38:21.214Z,7.37
2018-12-01T10:43:24.501Z,6.57
2018-12-01T10:48:27.723Z,6.20
2018-12-01T10:53:30.967Z,6.10
2018-12-01T10:58:34.177Z,4.90
2018-12-01T11:03:39.921Z,5.07
2018-12-01T11:08:43.187Z,5.17
2018-12-01T11:13:46.429Z,5.37
2018-12-01T11:18:49.710Z,3.67
2018-12-01T11:23:52.944Z,3.37
2018-12-01T11:28:56.246Z,3.70
2018-12-01T11:33:59.544Z,2.70
2018-12-01T11:39:03.237Z,3.57
2018-12-01T11:44:07.168Z,2.83
2018-12-01T11:49:10.330Z,2.90
2018-12-01T11:54:13.639Z,2.70
2018-12-01T11:59:16.887Z,2.97
2018-12-01T12:04:20.289Z,3.40
2018-12-01T12:09:23.652Z,3.60
2018-12-01T12:14:26.890Z,3.47
2018-12-01T12:19:30.237Z,3.30
2018-12-01T12:24:33.490Z,4.70
2018-12-01T12:29:36.805Z,4.20
2018-12-01T12:34:40.111Z,4.23
2018-12-01T12:39:43.309Z,4.70
2018-12-01T12:44:46.537Z,4.40
2018-12-01T12:49:49.790Z,3.97
2018-12-01T12:54:53.046Z,4.30
2018-12-01T12:59:56.290Z,4.13
2018-12-01T13:04:59.567Z,4.37
2018-12-01T13:10:02.857Z,3.97
2018-12-01T13:15:09.861Z,4.40
2018-12-01T13:20:15.697Z,4.43
2018-12-01T13:25:18.953Z,4.07
2018-12-01T13:30:24.606Z,4.10
2018-12-01T13:35:27.818Z,4.20
2018-12-01T13:40:31.262Z,3.60
2018-12-01T13:45:34.975Z,3.83
2018-12-01T13:50:38.791Z,3.63
2018-12-01T13:55:42.653Z,3.70
2018-12-01T14:00:45.987Z,4.00
2018-12-01T14:05:49.691Z,4.17
2018-12-01T14:10:52.969Z,4.07
2018-12-01T14:15:56.951Z,4.40
2018-12-01T14:21:00.177Z,3.63
2018-12-01T14:26:04.232Z,4.10
2018-12-01T14:31:08.545Z,3.70
2018-12-01T14:36:12.713Z,4.10
2018-12-01T14:41:15.986Z,3.40
2018-12-01T14:46:19.249Z,6.63
2018-12-01T14:51:22.497Z,5.97
2018-12-01T14:56:25.714Z,5.97
2018-12-01T15:01:29.017Z,7.47
2018-12-01T15:06:32.319Z,5.90
2018-12-01T15:11:35.793Z,5.20
2018-12-01T15:16:39.018Z,4.70
2018-12-01T15:21:42.316Z,4.20
2018-12-01T15:26:45.701Z,10.33
2018-12-01T15:31:49.266Z,10.53
2018-12-01T15:36:52.507Z,11.27
2018-12-01T15:41:56.430Z,9.43
2018-12-01T15:46:59.217Z,9.77
2018-12-01T15:52:02.510Z,9.00
2018-12-01T15:57:06.162Z,12.33
2018-12-01T16:02:09.498Z,8.57
2018-12-01T16:07:12.755Z,7.17
2018-12-01T16:12:15.971Z,5.60
2018-12-01T16:17:19.346Z,3.70
2018-12-01T16:22:22.617Z,5.97
2018-12-01T16:27:25.850Z,7.13
2018-12-01T16:32:29.118Z,7.93
2018-12-01T16:37:33.508Z,7.40
2018-12-01T16:42:37.116Z,6.83
2018-12-01T16:47:40.327Z,5.67
2018-12-01T16:52:44.821Z,5.93
2018-12-01T16:57:48.106Z,10.50
2018-12-01T17:02:56.440Z,11.03
2018-12-01T17:07:59.717Z,10.17
2018-12-01T17:13:02.989Z,9.80
2018-12-01T17:18:08.136Z,12.47
2018-12-01T17:23:15.430Z,9.20
2018-12-01T17:28:19.588Z,8.13
2018-12-01T17:33:22.946Z,7.90
2018-12-01T17:38:26.193Z,9.90
2018-12-01T17:43:35.107Z,9.70
2018-12-01T17:48:38.818Z,12.60
2018-12-01T17:53:44.821Z,12.37
2018-12-01T17:58:48.082Z,12.13
2018-12-01T18:03:51.425Z,14.93
2018-12-01T18:08:55.159Z,9.53
2018-12-01T18:13:58.390Z,11.57
2018-12-01T18:19:02.573Z,14.60
2018-12-01T18:24:05.944Z,13.60
2018-12-01T18:29:09.389Z,15.00
2018-12-01T18:34:15.000Z,14.70
2018-12-01T18:39:19.260Z,11.73
2018-12-01T18:44:22.485Z,9.87
2018-12-01T18:49:25.791Z,10.47
2018-12-01T18:54:29.090Z,43.20
2018-12-01T18:59:32.369Z,16.37
2018-12-01T19:04:35.650Z,6.67
2018-12-01T19:09:38.935Z,8.13
2018-12-01T19:14:42.277Z,7.47
2018-12-01T19:19:45.585Z,5.57
2018-12-01T19:24:48.896Z,8.00
2018-12-01T19:29:53.093Z,5.97
2018-12-01T19:34:56.558Z,8.03
2018-12-01T19:40:00.984Z,12.47
2018-12-01T19:45:04.279Z,10.97
2018-12-01T19:50:24.078Z,9.97
2018-12-01T19:55:28.315Z,9.90
2018-12-01T20:00:31.647Z,9.07
2018-12-01T20:05:34.931Z,11.63
2018-12-01T20:11:01.483Z,10.53
2018-12-01T20:16:23.177Z,8.60
2018-12-01T20:21:26.492Z,8.47
2018-12-01T20:26:29.983Z,8.53
2018-12-01T20:31:33.361Z,7.20
2018-12-01T20:36:40.324Z,8.47
2018-12-01T20:41:43.549Z,8.80
2018-12-01T20:46:47.627Z,9.43
2018-12-01T20:51:50.849Z,8.43
2018-12-01T20:57:02.037Z,7.00
2018-12-01T21:02:05.984Z,7.00
2018-12-01T21:07:09.317Z,5.97
2018-12-01T21:12:13.670Z,7.70
2018-12-01T21:17:17.002Z,6.63
2018-12-01T21:22:20.263Z,6.40
2018-12-01T21:27:23.504Z,10.47
2018-12-01T21:32:26.753Z,11.77
2018-12-01T21:37:30.003Z,17.53
2018-12-01T21:42:33.218Z,11.80
2018-12-01T21:47:36.554Z,8.60
2018-12-01T21:52:40.716Z,11.50
2018-12-01T21:57:46.001Z,7.90
2018-12-01T22:02:53.714Z,6.87
2018-12-01T22:07:57.102Z,7.90
2018-12-01T22:13:01.037Z,8.67
2018-12-01T22:18:05.355Z,8.33
2018-12-01T22:23:08.591Z,7.27
2018-12-01T22:28:13.922Z,12.70
2018-12-01T22:33:21.847Z,6.17
2018-12-01T22:38:26.872Z,6.37
2018-12-01T22:43:30.131Z,5.27
2018-12-01T22:48:33.968Z,5.37
2018-12-01T22:53:38.448Z,5.27
2018-12-01T22:58:41.690Z,5.23
2018-12-01T23:03:44.908Z,6.77
2018-12-01T23:08:48.170Z,8.43
2018-12-01T23:13:51.393Z,8.23
2018-12-01T23:18:55.616Z,7.63
2018-12-01T23:23:57.853Z,7.63
2018-12-01T23:29:01.108Z,6.03
2018-12-01T23:34:04.533Z,6.77
2018-12-01T23:39:07.765Z,10.53
2018-12-01T23:44:19.182Z,9.80
2018-12-01T23:49:23.343Z,8.60
2018-12-01T23:54:26.545Z,6.87
2018-12-01T23:59:29.749Z,8.40
